createdAt,value
2022-09-23T00:02:20.212Z,4.19
2022-09-23T00:07:20.079Z,4.19
2022-09-23T00:12:20.067Z,4.19
2022-09-23T00:17:20.046Z,4.19
2022-09-23T00:22:20.061Z,4.19
2022-09-23T00:27:20.050Z,4.18
2022-09-23T00:32:20.055Z,4.08
2022-09-23T00:37:20.050Z,3.98
2022-09-23T00:42:20.042Z,3.95
2022-09-23T00:47:20.042Z,3.92
2022-09-23T00:52:20.054Z,3.89
2022-09-23T00:57:20.041Z,3.86
2022-09-23T01:02:20.092Z,3.78
2022-09-23T01:07:20.116Z,3.72
2022-09-23T01:27:20.015Z,3.54
2022-09-23T01:37:20.001Z,3.48
2022-09-23T01:42:20.011Z,3.43
2022-09-23T01:52:20.002Z,3.38
2022-09-23T02:02:20.016Z,3.33
2022-09-23T02:22:19.980Z,3.08
2022-09-23T02:27:19.968Z,3.06
2022-09-23T02:37:19.973Z,3.08
2022-09-23T02:42:19.982Z,3.02
2022-09-23T02:47:19.963Z,2.95
2022-09-23T02:52:19.971Z,2.89
2022-09-23T02:57:19.963Z,2.83
2022-09-23T03:02:20.037Z,2.79
2022-09-23T03:07:19.971Z,2.79
2022-09-23T03:12:19.957Z,2.79
2022-09-23T03:17:19.953Z,2.77
2022-09-23T03:22:19.964Z,2.79
2022-09-23T03:27:19.942Z,2.83
2022-09-23T03:32:19.932Z,2.79
2022-09-23T03:37:19.953Z,2.77
2022-09-23T03:42:19.940Z,2.72
2022-09-23T03:47:19.933Z,2.67
2022-09-23T03:52:19.938Z,2.65
2022-09-23T03:57:19.928Z,2.61
2022-09-23T04:02:20.115Z,2.6
2022-09-23T04:07:19.929Z,2.6
2022-09-23T04:12:19.923Z,2.59
2022-09-23T04:17:19.925Z,2.58
2022-09-23T04:22:19.919Z,2.57
2022-09-23T04:27:19.938Z,2.54
2022-09-23T04:32:19.906Z,2.52
2022-09-23T04:37:19.911Z,2.5
2022-09-23T04:42:19.922Z,2.48
2022-09-23T04:47:19.913Z,2.44
2022-09-23T04:52:19.895Z,2.44
2022-09-23T04:57:19.908Z,2.42
2022-09-23T05:02:19.974Z,2.53
2022-09-23T05:07:19.906Z,2.67
2022-09-23T05:12:19.901Z,2.74
2022-09-23T05:17:19.897Z,2.79
2022-09-23T05:22:19.891Z,2.9
2022-09-23T05:27:19.887Z,3.07
2022-09-23T05:32:19.888Z,3.32
2022-09-23T05:37:19.882Z,3.65
2022-09-23T05:42:19.886Z,4.07
2022-09-23T05:47:19.869Z,4.22
2022-09-23T05:52:19.872Z,4.66
2022-09-23T05:57:19.873Z,5
2022-09-23T06:02:19.908Z,5.3
2022-09-23T06:07:19.850Z,5.64
2022-09-23T06:12:19.860Z,5.93
2022-09-23T06:17:19.854Z,6.26
2022-09-23T06:22:19.849Z,6.61
2022-09-23T06:27:19.950Z,6.93
2022-09-23T06:32:19.836Z,7.09
2022-09-23T06:37:20.747Z,7.2
2022-09-23T06:42:19.854Z,7.38
2022-09-23T06:47:19.817Z,7.71
2022-09-23T06:52:19.820Z,7.96
2022-09-23T06:57:19.836Z,8.22
2022-09-23T07:02:19.915Z,8.39
2022-09-23T07:07:19.817Z,8.43
2022-09-23T07:12:19.822Z,8.57
2022-09-23T07:17:19.797Z,8.77
2022-09-23T07:22:19.806Z,9
2022-09-23T07:27:19.802Z,9.26
2022-09-23T07:32:19.846Z,9.43
2022-09-23T07:37:19.801Z,9.63
2022-09-23T07:42:19.792Z,9.77
2022-09-23T07:47:19.768Z,9.78
2022-09-23T07:52:19.772Z,9.86
2022-09-23T07:57:19.770Z,10.07
2022-09-23T08:02:19.797Z,10.28
2022-09-23T08:17:19.765Z,10.73
2022-09-23T08:22:19.735Z,10.85
2022-09-23T08:37:19.715Z,11.35
2022-09-23T09:12:19.678Z,12.67
2022-09-23T09:17:19.674Z,12.84
2022-09-23T09:22:19.684Z,12.98
2022-09-23T09:27:19.673Z,13.15
2022-09-23T09:32:19.673Z,13.36
2022-09-23T09:37:19.655Z,13.53
2022-09-23T09:42:19.667Z,13.77
2022-09-23T09:47:19.652Z,13.91
2022-09-23T09:52:19.654Z,14
2022-09-23T09:57:19.632Z,14.12
2022-09-23T10:02:19.563Z,14.18
2022-09-23T10:07:19.567Z,14.34
2022-09-23T10:12:19.562Z,14.55
2022-09-23T10:17:19.557Z,14.7
2022-09-23T10:22:19.537Z,14.77
2022-09-23T10:27:19.547Z,14.92
2022-09-23T10:32:19.535Z,15.05
2022-09-23T10:37:19.525Z,15.16
2022-09-23T10:47:19.518Z,15.39
2022-09-23T10:52:19.530Z,15.39
2022-09-23T10:57:19.524Z,15.39
2022-09-23T11:02:19.528Z,15.64
2022-09-23T11:07:19.513Z,15.69
2022-09-23T11:17:19.561Z,15.95
2022-09-23T11:22:19.501Z,16.14
2022-09-23T11:27:19.493Z,16.2
2022-09-23T11:32:19.486Z,16.2
2022-09-23T11:37:19.515Z,16.23
2022-09-23T11:42:19.542Z,16.36
2022-09-23T11:47:19.475Z,16.54
2022-09-23T11:52:19.483Z,16.63
2022-09-23T11:57:19.484Z,16.65
2022-09-23T12:02:21.369Z,16.79
2022-09-23T12:07:19.468Z,17.01
2022-09-23T12:12:21.051Z,17.15
2022-09-23T12:17:19.440Z,17.26
2022-09-23T12:22:19.448Z,17.26
2022-09-23T12:27:19.433Z,17.43
2022-09-23T12:32:19.430Z,17.52
2022-09-23T12:37:19.416Z,17.75
2022-09-23T12:42:19.415Z,17.64
2022-09-23T12:47:19.409Z,17.64
2022-09-23T12:52:19.402Z,17.57
2022-09-23T12:57:19.390Z,17.64
2022-09-23T13:02:19.533Z,17.7
2022-09-23T13:07:19.400Z,17.8
2022-09-23T13:12:19.372Z,17.74
2022-09-23T13:17:19.384Z,17.72
2022-09-23T13:22:19.373Z,17.8
2022-09-23T13:27:19.352Z,17.8
2022-09-23T13:32:19.362Z,17.7
2022-09-23T13:37:22.363Z,17.67
2022-09-23T13:42:19.347Z,17.67
2022-09-23T13:47:19.343Z,17.64
2022-09-23T13:52:19.348Z,17.6
2022-09-23T13:57:19.320Z,17.6
2022-09-23T14:02:19.333Z,17.64
2022-09-23T14:07:19.309Z,17.55
2022-09-23T14:12:19.309Z,17.53
2022-09-23T14:17:19.318Z,17.42
2022-09-23T14:22:19.295Z,17.37
2022-09-23T14:27:19.277Z,17.26
2022-09-23T14:32:19.308Z,17.23
2022-09-23T14:37:19.281Z,17.13
2022-09-23T14:42:19.285Z,17.03
2022-09-23T14:47:19.262Z,16.95
2022-09-23T14:52:19.263Z,16.92
2022-09-23T14:57:19.258Z,16.88
2022-09-23T15:02:19.250Z,16.86
2022-09-23T15:07:19.242Z,16.86
2022-09-23T15:12:19.250Z,16.88
2022-09-23T15:17:19.252Z,16.89
2022-09-23T15:22:19.228Z,16.88
2022-09-23T15:27:19.223Z,16.83
2022-09-23T15:32:19.213Z,16.72
2022-09-23T15:37:19.209Z,16.56
2022-09-23T15:42:19.227Z,16.4
2022-09-23T15:47:19.195Z,16.28
2022-09-23T15:52:19.189Z,16.12
2022-09-23T15:57:19.183Z,15.91
2022-09-23T16:02:19.248Z,15.61
2022-09-23T16:07:19.183Z,15.39
2022-09-23T16:12:19.167Z,15.38
2022-09-23T16:17:19.150Z,15.19
2022-09-23T16:27:19.167Z,14.7
2022-09-23T16:32:22.178Z,14.44
2022-09-23T16:37:19.137Z,14.15
2022-09-23T16:52:19.123Z,13.19
2022-09-23T16:57:19.121Z,12.89
2022-09-23T17:12:19.097Z,12.1
2022-09-23T17:17:19.101Z,11.85
2022-09-23T17:22:19.099Z,11.65
2022-09-23T17:27:19.172Z,11.49
2022-09-23T17:32:19.090Z,11.26
2022-09-23T17:37:19.098Z,11.01
2022-09-23T17:42:19.066Z,10.81
2022-09-23T17:47:19.097Z,10.63
2022-09-23T17:52:19.046Z,10.44
2022-09-23T17:57:19.049Z,10.23
2022-09-23T18:02:19.095Z,10.07
2022-09-23T18:07:19.051Z,9.95
2022-09-23T18:12:19.045Z,9.79
2022-09-23T18:17:19.027Z,9.77
2022-09-23T18:22:19.023Z,9.77
2022-09-23T18:27:19.026Z,9.54
2022-09-23T18:32:19.014Z,9.4
2022-09-23T18:37:19.022Z,9.3
2022-09-23T18:42:19.006Z,9.19
2022-09-23T18:47:19.010Z,9.13
2022-09-23T18:52:19.015Z,9.09
2022-09-23T18:57:18.986Z,9.03
2022-09-23T19:02:19.056Z,8.93
2022-09-23T19:07:19.005Z,8.83
2022-09-23T19:12:18.982Z,8.77
2022-09-23T19:17:18.989Z,8.66
2022-09-23T19:22:18.997Z,8.6
2022-09-23T19:27:18.983Z,8.53
2022-09-23T19:32:18.965Z,8.44
2022-09-23T19:37:18.986Z,8.39
2022-09-23T19:42:18.953Z,8.24
2022-09-23T19:47:18.942Z,8.16
2022-09-23T19:52:18.987Z,8.09
2022-09-23T19:57:18.944Z,8.03
2022-09-23T20:02:18.965Z,8.03
2022-09-23T20:07:18.937Z,7.98
2022-09-23T20:12:18.930Z,7.98
2022-09-23T20:17:18.919Z,7.99
2022-09-23T20:22:18.917Z,8.01
2022-09-23T20:27:18.941Z,7.98
2022-09-23T20:32:18.954Z,7.99
2022-09-23T20:37:18.906Z,7.93
2022-09-23T20:42:18.917Z,7.92
2022-09-23T20:47:18.983Z,7.81
2022-09-23T20:52:18.895Z,7.75
2022-09-23T20:57:18.886Z,7.69
2022-09-23T21:02:18.927Z,7.68
2022-09-23T21:07:18.878Z,7.63
2022-09-23T21:12:18.877Z,7.57
2022-09-23T21:17:18.861Z,7.56
2022-09-23T21:22:18.858Z,7.52
2022-09-23T21:27:18.846Z,7.47
2022-09-23T21:32:18.862Z,7.44
2022-09-23T21:37:18.850Z,7.44
2022-09-23T21:42:18.845Z,7.47
2022-09-23T21:47:18.838Z,7.52
2022-09-23T21:52:18.844Z,7.61
2022-09-23T21:57:18.833Z,7.73
2022-09-23T22:12:18.848Z,7.92
2022-09-23T22:17:18.814Z,7.98
2022-09-23T22:22:18.823Z,8.08
2022-09-23T22:27:18.833Z,8.16
2022-09-23T22:32:18.803Z,8.19
2022-09-23T22:37:18.796Z,8.18
2022-09-23T22:42:18.808Z,8.14
2022-09-23T22:47:18.815Z,8.08
2022-09-23T22:52:18.784Z,8.05
2022-09-23T22:57:18.775Z,8.07
2022-09-23T23:02:18.787Z,8.1
2022-09-23T23:12:18.783Z,8.24
2022-09-23T23:17:18.781Z,8.31
2022-09-23T23:22:18.764Z,8.29
2022-09-23T23:32:18.762Z,8.39
2022-09-23T23:42:18.747Z,8.39
2022-09-23T23:47:18.732Z,8.39
2022-09-23T23:52:18.753Z,8.44
